Bookmark and Share
Track history (hours):
 

Tk Rotterdam

Last reported at 2014-Apr-16 13:31 UTC. Time now 2014-Apr-16 13:45 UTC.
Position N 53°47' E 006°35'.

Length 130 m; draft 5.2 m.

Type: Cargo ship. MMSI: 636014098.

NotesDate/timePositionNaut miles runAvg speedWind from/ knotsBaromVisibWave heightAir tempDewpointWater temp
2014-Apr-16 13:31N 53°47' E 006°35'1812.1
2014-Apr-16 12:05N 53°41' E 006°07'712.6
2014-Apr-16 11:34N 53°39' E 005°56'1312.9
2014-Apr-16 10:33N 53°35' E 005°36'1313.1
2014-Apr-16 09:33N 53°31' E 005°15'1413.6
2014-Apr-16 08:33N 53°26' E 004°53'1313.4
2014-Apr-16 07:34N 53°17' E 004°38'3711.3
2014-Apr-16 04:19N 52°45' E 004°07'7 9.7
2014-Apr-16 03:33N 52°40' E 003°59'1010.1
2014-Apr-16 02:33N 52°32' E 003°47'12 9.7
2014-Apr-16 01:21N 52°24' E 003°34'8 8.6
2014-Apr-16 00:24N 52°18' E 003°24'49 7.0
2014-Apr-15 17:21N 51°42' E 002°31'7 8.4
2014-Apr-15 16:32N 51°36' E 002°24'9 8.9
2014-Apr-15 15:31N 51°29' E 002°15'9 3.1
2014-Apr-15 12:34N 51°21' E 002°23'7 6.9
2014-Apr-15 11:34N 51°24' E 002°33'1 1.0
2014-Apr-15 10:31N 51°24' E 002°35'0 0.0
2014-Apr-15 09:34N 51°24' E 002°35'0 0.0
2014-Apr-15 08:31N 51°24' E 002°35'0 0.0
2014-Apr-15 05:31N 51°24' E 002°35'0 0.0
2014-Apr-15 03:33N 51°24' E 002°35'0 0.0
2014-Apr-15 02:29N 51°24' E 002°35'0 0.1
2014-Apr-15 01:32N 51°24' E 002°35'0 0.0
2014-Apr-15 00:31N 51°24' E 002°35'0 0.0
2014-Apr-14 23:30N 51°24' E 002°35'0 0.1
2014-Apr-14 22:34N 51°24' E 002°35'4 4.2
2014-Apr-14 21:34N 51°22' E 002°30'5 4.6
2014-Apr-14 20:34N 51°20' E 002°22'7 7.1
2014-Apr-14 19:34N 51°23' E 002°33'2 1.8
2014-Apr-14 18:33N 51°24' E 002°34'0 0.0
2014-Apr-14 17:32N 51°24' E 002°35'1 0.7
2014-Apr-14 16:34N 51°24' E 002°34'4 3.7
2014-Apr-14 15:34N 51°25' E 002°40'0 0.0
2014-Apr-14 14:33N 51°25' E 002°40'0 0.0
2014-Apr-14 13:32N 51°25' E 002°40'0 0.0
2014-Apr-14 11:31N 51°25' E 002°40'0 0.0
2014-Apr-14 10:34N 51°25' E 002°40'0 0.0
2014-Apr-14 09:33N 51°25' E 002°40'0 0.0
2014-Apr-14 08:32N 51°25' E 002°40'0 0.0
2014-Apr-14 06:31N 51°25' E 002°40'0 0.0
2014-Apr-14 05:33N 51°25' E 002°40'0 0.0
2014-Apr-13 22:32N 51°25' E 002°40'0 0.0
2014-Apr-13 21:31N 51°25' E 002°40'0 0.1
2014-Apr-13 20:33N 51°25' E 002°40'0 0.1
2014-Apr-13 19:33N 51°25' E 002°40'0 0.0
2014-Apr-13 18:32N 51°25' E 002°40'0 0.0
2014-Apr-13 17:32N 51°25' E 002°40'0 0.1
2014-Apr-13 16:33N 51°25' E 002°40'0 0.1
2014-Apr-13 15:33N 51°25' E 002°40'0 0.0
2014-Apr-13 14:27N 51°25' E 002°40'0 0.1
2014-Apr-13 13:32N 51°25' E 002°40'0 0.0
2014-Apr-13 12:31N 51°25' E 002°40'0 0.0
2014-Apr-13 11:30N 51°25' E 002°40'0 0.0
2014-Apr-13 10:33N 51°25' E 002°40'0 0.0
2014-Apr-13 09:23N 51°25' E 002°40'0 0.1
2014-Apr-13 08:28N 51°25' E 002°40'0 0.0
2014-Apr-13 07:31N 51°25' E 002°40'0 0.0
2014-Apr-13 06:33N 51°25' E 002°40'0 0.0
2014-Apr-13 05:33N 51°25' E 002°40'0 0.0
2014-Apr-13 04:32N 51°25' E 002°40'0 0.0
2014-Apr-13 03:31N 51°25' E 002°40'0 0.0
2014-Apr-13 02:28N 51°25' E 002°40'0 0.0
2014-Apr-13 01:30N 51°25' E 002°40'0 0.0
2014-Apr-13 00:32N 51°25' E 002°40'0 0.0
2014-Apr-12 23:32N 51°25' E 002°40'0 0.0
2014-Apr-12 22:31N 51°25' E 002°40'0 0.0
2014-Apr-12 21:31N 51°25' E 002°40'0 0.1
2014-Apr-12 20:27N 51°25' E 002°40'0 0.0
2014-Apr-12 19:32N 51°25' E 002°40'0 0.0
2014-Apr-12 18:29N 51°25' E 002°40'0 0.1
2014-Apr-12 17:31N 51°25' E 002°40'0 0.0
2014-Apr-12 16:34N 51°25' E 002°40'0 0.0
2014-Apr-12 15:33N 51°25' E 002°40'0 0.0
2014-Apr-12 14:32N 51°25' E 002°40'0 0.0
2014-Apr-12 13:29N 51°25' E 002°40'0 0.0
2014-Apr-12 12:28N 51°25' E 002°40'0 0.0
2014-Apr-12 11:33N 51°25' E 002°40'0 0.0
2014-Apr-12 10:33N 51°25' E 002°40'0 0.0
2014-Apr-12 09:32N 51°25' E 002°40'0 0.1
2014-Apr-12 08:31N 51°25' E 002°40'0 0.1
2014-Apr-12 07:31N 51°25' E 002°40'0 0.0
2014-Apr-12 06:30N 51°25' E 002°40'0 0.0
2014-Apr-12 05:33N 51°25' E 002°40'0 0.0
2014-Apr-12 04:32N 51°25' E 002°40'0 0.1
2014-Apr-12 03:31N 51°25' E 002°40'0 0.0
2014-Apr-12 02:22N 51°25' E 002°40'0 0.1
2014-Apr-12 01:33N 51°25' E 002°40'0 0.0
2014-Apr-12 00:33N 51°25' E 002°40'0 0.0
2014-Apr-11 23:32N 51°25' E 002°40'0 0.0
2014-Apr-11 22:31N 51°25' E 002°40'0 0.1
2014-Apr-11 21:31N 51°25' E 002°40'0 0.1
2014-Apr-11 20:33N 51°25' E 002°40'0 0.0
2014-Apr-11 19:32N 51°25' E 002°40'0 0.0
2014-Apr-11 18:32N 51°25' E 002°40'0 0.0
2014-Apr-11 17:28N 51°25' E 002°40'0 0.0
2014-Apr-11 16:31N 51°25' E 002°40'0 0.0
2014-Apr-11 15:33N 51°25' E 002°40'0 0.0
2014-Apr-11 14:32N 51°25' E 002°40'0 0.1
2014-Apr-11 13:32N 51°25' E 002°40'0 0.0
2014-Apr-11 12:25N 51°25' E 002°40'0 0.0
2014-Apr-11 11:33N 51°25' E 002°40'0 0.0
2014-Apr-11 10:30N 51°25' E 002°40'0 0.0
2014-Apr-11 09:32N 51°25' E 002°40'0 0.1
2014-Apr-11 08:29N 51°25' E 002°40'0 0.1
2014-Apr-11 07:25N 51°25' E 002°40'0 0.0
2014-Apr-11 06:33N 51°25' E 002°40'0 0.0
2014-Apr-11 05:33N 51°25' E 002°40'0 0.0
2014-Apr-11 04:32N 51°25' E 002°40'0 0.0
2014-Apr-11 03:31N 51°25' E 002°40'0 0.1
2014-Apr-11 02:31N 51°25' E 002°40'4 4.3
2014-Apr-11 01:34N 51°22' E 002°44'9 8.8
2014-Apr-11 00:33N 51°24' E 002°59'9 8.7
2014-Apr-10 23:33N 51°25' E 003°12'8 8.4
2014-Apr-10 22:33N 51°25' E 003°26'6 6.4
2014-Apr-10 21:34N 51°26' E 003°36'6 5.7
2014-Apr-10 20:33N 51°23' E 003°43'5 4.8
2014-Apr-10 19:34N 51°20' E 003°49'2 1.7
2014-Apr-10 18:34N 51°18' E 003°50'6 6.5
2014-Apr-10 17:33N 51°12' E 003°48'6 6.2
2014-Apr-10 16:33N 51°06' E 003°45'0 0.5
2014-Apr-10 15:30N 51°05' E 003°45'0 0.0
2014-Apr-10 14:30N 51°05' E 003°45'0 0.0
2014-Apr-10 13:29N 51°05' E 003°45'0 0.0
2014-Apr-10 12:28N 51°05' E 003°45'0 0.0
2014-Apr-10 11:32N 51°05' E 003°45'0 0.0
2014-Apr-10 10:32N 51°05' E 003°45'0 0.0
2014-Apr-10 09:31N 51°05' E 003°45'0 0.0
2014-Apr-10 08:33N 51°05' E 003°45'0 0.0
2014-Apr-10 07:33N 51°05' E 003°45'0 0.0
2014-Apr-10 06:29N 51°05' E 003°45'0 0.0
2014-Apr-10 05:25N 51°05' E 003°45'0 0.0
2014-Apr-10 04:31N 51°05' E 003°45'0 0.0
2014-Apr-10 03:33N 51°05' E 003°45'0 0.0
2014-Apr-10 02:33N 51°05' E 003°45'0 0.0
2014-Apr-10 01:32N 51°05' E 003°45'0 0.0
2014-Apr-10 00:31N 51°05' E 003°45'0 0.0
2014-Apr-09 23:31N 51°05' E 003°45'0 0.0
2014-Apr-09 22:30N 51°05' E 003°45'0 0.0
2014-Apr-09 21:30N 51°05' E 003°45'0 0.0
2014-Apr-09 20:29N 51°05' E 003°45'0 0.0
2014-Apr-09 19:28N 51°05' E 003°45'0 0.0
2014-Apr-09 18:31N 51°05' E 003°45'0 0.0
2014-Apr-09 17:30N 51°05' E 003°45'0 0.0
2014-Apr-09 16:32N 51°05' E 003°45'0 0.0
2014-Apr-09 15:32N 51°05' E 003°45'0 0.0
2014-Apr-09 14:31N 51°05' E 003°45'0 0.0
2014-Apr-09 13:30N 51°05' E 003°45'0 0.0
2014-Apr-09 12:33N 51°05' E 003°45'0 0.0
2014-Apr-09 11:32N 51°05' E 003°45'2 1.6
2014-Apr-09 10:33N 51°07' E 003°45'7 6.5
2014-Apr-09 09:33N 51°13' E 003°48'6 6.0
2014-Apr-09 08:33N 51°19' E 003°50'1 1.5
2014-Apr-09 07:34N 51°20' E 003°49'5 4.6
2014-Apr-09 06:33N 51°23' E 003°43'1 0.7
2014-Apr-09 05:33N 51°24' E 003°43'0 0.5
2014-Apr-09 04:33N 51°24' E 003°43'7 7.0
2014-Apr-09 03:33N 51°25' E 003°31'8 8.1
2014-Apr-09 02:33N 51°24' E 003°18'8 7.5
2014-Apr-09 01:33N 51°24' E 003°06'7 7.5
2014-Apr-09 00:33N 51°22' E 002°55'8 7.5
2014-Apr-08 23:33N 51°23' E 002°43'3 2.9
2014-Apr-08 22:29N 51°25' E 002°40'0 0.2
2014-Apr-08 21:33N 51°25' E 002°40'5 4.6
2014-Apr-08 20:34N 51°22' E 002°35'7 7.4
2014-Apr-08 19:33N 51°20' E 002°23'9 9.1
2014-Apr-08 18:32N 51°15' E 002°10'9 8.9
2014-Apr-08 17:33N 51°11' E 001°59'9 8.8
2014-Apr-08 16:33N 51°06' E 001°47'8 8.5
2014-Apr-08 15:33N 51°00' E 001°37'8 8.0
2014-Apr-08 14:32N 50°54' E 001°29'8 7.2
2014-Apr-08 13:26N 50°47' E 001°24'28 7.2
2014-Apr-08 09:32N 50°28' E 000°50'8 8.1
2014-Apr-08 08:29N 50°26' E 000°38'8 8.1
2014-Apr-08 07:30N 50°24' E 000°26'  

Dump ship's entire track history

sailing weather and tide predictions

Tk Rotterdam — A8RG8 — position and weather